Time;durP1;ratioP1;P1;durP2;ratioP2;P2;SDS_P1;SDS_P2;PMS_P1;PMS_P2;Temp;Humidity;BMP_temperature;BMP_pressure;BME280_temperature;BME280_humidity;BME280_pressure;Samples;Min_cycle;Max_cycle;Signal;HPM_P1;HPM_P2
2022/09/19 00:01:07;;;;;;;1.58;1.10;;;;;;;;;;615711;230;27250;-64
2022/09/19 00:03:36;;;;;;;1.58;1.15;;;;;;;;;;615398;230;26837;-64
2022/09/19 00:06:05;;;;;;;2.92;1.23;;;;;;;;;;615108;230;26654;-63
2022/09/19 00:08:34;;;;;;;1.55;1.10;;;;;;;;;;616037;230;26822;-64
2022/09/19 00:11:03;;;;;;;1.25;1.00;;;;;;;;;;614883;231;26562;-64
2022/09/19 00:13:31;;;;;;;2.08;1.20;;;;;;;;;;615927;230;26621;-64
2022/09/19 00:16:00;;;;;;;1.08;0.98;;;;;;;;;;617851;230;26555;-65
2022/09/19 00:18:29;;;;;;;1.65;1.20;;;;;;;;;;616554;231;26579;-64
2022/09/19 00:21:00;;;;;;;2.17;1.35;;;;;;;;;;618571;230;26618;-64
2022/09/19 00:26:01;;;;;;;1.87;1.20;;;;;;;;;;615791;230;26582;-64
2022/09/19 00:28:30;;;;;;;2.25;1.15;;;;;;;;;;617123;231;26766;-64
2022/09/19 00:31:00;;;;;;;1.20;1.10;;;;;;;;;;616615;231;26591;-64
2022/09/19 00:33:28;;;;;;;1.42;1.30;;;;;;;;;;615815;231;26650;-64
2022/09/19 00:35:57;;;;;;;1.90;1.00;;;;;;;;;;615760;231;26537;-64
2022/09/19 00:38:26;;;;;;;5.75;1.02;;;;;;;;;;615403;231;26568;-64
2022/09/19 00:40:54;;;;;;;2.03;1.20;;;;;;;;;;617762;231;26548;-64
2022/09/19 00:43:25;;;;;;;1.20;1.10;;;;;;;;;;614747;228;26611;-64
2022/09/19 00:45:52;;;;;;;2.10;1.25;;;;;;;;;;614445;231;26806;-64
2022/09/19 00:48:21;;;;;;;2.47;1.20;;;;;;;;;;616737;231;26539;-64
2022/09/19 00:50:50;;;;;;;1.12;1.00;;;;;;;;;;614633;231;26805;-64
2022/09/19 00:53:19;;;;;;;1.30;1.20;;;;;;;;;;616511;229;26586;-64
2022/09/19 00:55:49;;;;;;;1.05;1.05;;;;;;;;;;617182;230;26618;-64
2022/09/19 00:58:19;;;;;;;2.10;1.08;;;;;;;;;;616533;230;26619;-64
2022/09/19 01:00:47;;;;;;;0.90;0.85;;;;;;;;;;617069;230;26553;-63
2022/09/19 01:03:16;;;;;;;1.48;1.00;;;;;;;;;;615942;231;26803;-63
2022/09/19 01:06:02;;;;;;;1.98;1.08;;;;;;;;;;617532;230;26619;-64
2022/09/19 01:08:31;;;;;;;1.33;1.08;;;;;;;;;;616218;227;26642;-64
2022/09/19 01:11:11;;;;;;;1.87;1.00;;;;;;;;;;614761;231;26845;-64
2022/09/19 01:13:42;;;;;;;2.40;1.10;;;;;;;;;;614841;231;26601;-64
2022/09/19 01:16:11;;;;;;;1.27;0.98;;;;;;;;;;614677;231;26551;-64
2022/09/19 01:18:40;;;;;;;1.10;1.00;;;;;;;;;;616882;230;26539;-64
2022/09/19 01:23:48;;;;;;;1.25;1.10;;;;;;;;;;617611;230;27030;-64
2022/09/19 01:26:18;;;;;;;2.05;1.10;;;;;;;;;;617865;230;26545;-64
2022/09/19 01:28:46;;;;;;;3.85;1.33;;;;;;;;;;616476;230;26553;-64
2022/09/19 01:31:17;;;;;;;1.75;1.48;;;;;;;;;;614384;231;26813;-64
2022/09/19 01:33:47;;;;;;;2.47;1.40;;;;;;;;;;615140;231;26586;-64
2022/09/19 01:36:15;;;;;;;1.48;0.90;;;;;;;;;;615398;231;26541;-64
2022/09/19 01:38:45;;;;;;;1.35;1.02;;;;;;;;;;615282;231;26593;-64
2022/09/19 01:41:13;;;;;;;0.80;0.80;;;;;;;;;;615483;231;26574;-64
2022/09/19 01:43:42;;;;;;;1.50;1.23;;;;;;;;;;616221;231;26565;-64
2022/09/19 01:46:12;;;;;;;2.60;1.20;;;;;;;;;;615163;231;26553;-64
2022/09/19 01:48:46;;;;;;;1.25;1.02;;;;;;;;;;616815;231;26635;-64
2022/09/19 01:51:31;;;;;;;2.10;1.00;;;;;;;;;;617287;230;26626;-64
2022/09/19 01:54:07;;;;;;;2.20;1.05;;;;;;;;;;614618;231;26653;-64
2022/09/19 01:56:36;;;;;;;0.93;0.82;;;;;;;;;;615006;231;26550;-64
2022/09/19 01:59:04;;;;;;;1.67;1.20;;;;;;;;;;614018;231;26565;-64
2022/09/19 02:01:35;;;;;;;1.52;1.00;;;;;;;;;;614777;231;27117;-64
2022/09/19 02:04:22;;;;;;;1.67;1.08;;;;;;;;;;616576;231;26643;-64
2022/09/19 02:06:53;;;;;;;1.95;1.02;;;;;;;;;;615717;231;26618;-64
2022/09/19 02:09:22;;;;;;;1.55;1.27;;;;;;;;;;615399;230;26801;-64
2022/09/19 02:11:52;;;;;;;2.00;1.40;;;;;;;;;;615981;230;26592;-64
2022/09/19 02:14:21;;;;;;;1.70;1.30;;;;;;;;;;618128;230;26612;-64
2022/09/19 02:16:51;;;;;;;1.55;1.15;;;;;;;;;;616363;231;26604;-64
2022/09/19 02:19:21;;;;;;;3.37;1.10;;;;;;;;;;617338;230;26584;-64
2022/09/19 02:21:52;;;;;;;2.12;1.20;;;;;;;;;;619043;230;26541;-64
2022/09/19 02:24:19;;;;;;;1.50;1.02;;;;;;;;;;615945;231;26586;-64
2022/09/19 02:26:51;;;;;;;2.37;1.12;;;;;;;;;;614179;231;26586;-65
2022/09/19 02:29:20;;;;;;;3.30;1.20;;;;;;;;;;616704;230;26825;-65
2022/09/19 02:31:46;;;;;;;1.45;0.80;;;;;;;;;;615331;231;26612;-65
2022/09/19 02:34:16;;;;;;;1.60;1.20;;;;;;;;;;618450;230;26555;-65
2022/09/19 02:36:46;;;;;;;2.08;1.33;;;;;;;;;;617430;230;26561;-65
2022/09/19 02:39:20;;;;;;;1.48;1.00;;;;;;;;;;617804;230;26788;-65
2022/09/19 02:42:04;;;;;;;2.05;1.00;;;;;;;;;;614711;230;26697;-65
2022/09/19 02:44:33;;;;;;;1.92;1.00;;;;;;;;;;616731;230;26835;-65
2022/09/19 02:47:04;;;;;;;2.05;1.20;;;;;;;;;;614548;231;26579;-65
2022/09/19 02:49:38;;;;;;;1.73;1.00;;;;;;;;;;615995;231;26589;-65
2022/09/19 02:52:08;;;;;;;1.67;1.10;;;;;;;;;;615595;231;26565;-65
2022/09/19 02:54:35;;;;;;;2.67;1.10;;;;;;;;;;616635;231;26584;-65
2022/09/19 02:57:06;;;;;;;1.45;1.27;;;;;;;;;;613797;234;26804;-65
2022/09/19 02:59:34;;;;;;;4.62;1.30;;;;;;;;;;615243;231;26533;-64
2022/09/19 03:02:03;;;;;;;1.20;1.10;;;;;;;;;;617708;231;26625;-65
2022/09/19 03:04:32;;;;;;;1.95;1.25;;;;;;;;;;614536;231;26943;-65
2022/09/19 03:07:06;;;;;;;1.33;1.15;;;;;;;;;;615933;231;26619;-65
2022/09/19 03:09:33;;;;;;;2.15;1.33;;;;;;;;;;615987;231;26831;-65
2022/09/19 03:12:03;;;;;;;2.35;1.10;;;;;;;;;;616761;231;26611;-65
2022/09/19 03:14:32;;;;;;;1.25;1.00;;;;;;;;;;616506;231;26613;-65
2022/09/19 03:17:00;;;;;;;1.73;1.33;;;;;;;;;;618547;230;26674;-66
2022/09/19 03:19:30;;;;;;;1.67;1.25;;;;;;;;;;615791;231;26631;-65
2022/09/19 03:21:58;;;;;;;1.95;1.10;;;;;;;;;;617067;230;26837;-65
2022/09/19 03:24:27;;;;;;;1.45;1.15;;;;;;;;;;615095;231;26582;-66
2022/09/19 03:26:56;;;;;;;1.23;0.85;;;;;;;;;;617319;230;26829;-66
2022/09/19 03:29:25;;;;;;;2.17;0.93;;;;;;;;;;615298;231;26589;-65
2022/09/19 03:31:54;;;;;;;1.65;0.90;;;;;;;;;;615460;231;26662;-65
2022/09/19 03:34:22;;;;;;;2.75;1.20;;;;;;;;;;617827;230;26892;-65
2022/09/19 03:36:51;;;;;;;1.55;1.10;;;;;;;;;;615125;231;26568;-70
2022/09/19 03:39:20;;;;;;;1.83;1.00;;;;;;;;;;616245;231;27088;-70
2022/09/19 03:41:50;;;;;;;1.20;1.10;;;;;;;;;;615474;231;26559;-70
2022/09/19 03:44:19;;;;;;;1.15;1.05;;;;;;;;;;616521;230;26897;-70
2022/09/19 03:46:47;;;;;;;1.90;1.25;;;;;;;;;;616044;228;26573;-70
2022/09/19 03:49:16;;;;;;;0.93;0.93;;;;;;;;;;615919;230;26563;-71
2022/09/19 03:51:46;;;;;;;2.08;0.90;;;;;;;;;;616647;231;26787;-70
2022/09/19 03:54:14;;;;;;;2.42;1.00;;;;;;;;;;615809;231;26565;-70
2022/09/19 03:56:43;;;;;;;2.05;1.23;;;;;;;;;;614746;231;26799;-70
2022/09/19 03:59:11;;;;;;;1.67;1.30;;;;;;;;;;614682;231;26581;-70
2022/09/19 04:01:40;;;;;;;1.17;1.10;;;;;;;;;;616927;231;26803;-70
2022/09/19 04:04:10;;;;;;;1.00;1.00;;;;;;;;;;618858;231;26550;-71
2022/09/19 04:06:40;;;;;;;1.25;1.10;;;;;;;;;;615861;231;26822;-70
2022/09/19 04:09:07;;;;;;;1.50;1.10;;;;;;;;;;615259;231;26581;-70
2022/09/19 04:11:36;;;;;;;1.20;1.10;;;;;;;;;;616326;231;26570;-70
2022/09/19 04:14:04;;;;;;;1.60;1.10;;;;;;;;;;616192;231;26591;-70
2022/09/19 04:16:33;;;;;;;1.73;1.30;;;;;;;;;;613973;234;26541;-70
2022/09/19 04:19:05;;;;;;;1.08;0.90;;;;;;;;;;617136;231;27272;-70
2022/09/19 04:21:31;;;;;;;1.00;1.00;;;;;;;;;;617788;231;26566;-70
2022/09/19 04:24:00;;;;;;;1.60;1.25;;;;;;;;;;616941;231;26807;-70
2022/09/19 04:26:29;;;;;;;2.40;0.90;;;;;;;;;;614854;231;26570;-70
2022/09/19 04:29:02;;;;;;;1.83;1.02;;;;;;;;;;617163;231;26666;-62
2022/09/19 04:31:27;;;;;;;1.17;1.08;;;;;;;;;;615607;231;26623;-62
2022/09/19 04:33:56;;;;;;;0.95;0.80;;;;;;;;;;618759;230;26572;-62
2022/09/19 04:36:31;;;;;;;3.33;1.12;;;;;;;;;;617792;230;26841;-62
2022/09/19 04:38:53;;;;;;;1.50;1.15;;;;;;;;;;616980;230;26598;-62
2022/09/19 04:41:22;;;;;;;2.62;1.02;;;;;;;;;;615954;230;26785;-63
2022/09/19 04:43:52;;;;;;;1.30;1.23;;;;;;;;;;616921;230;26673;-62
2022/09/19 04:46:21;;;;;;;3.50;1.30;;;;;;;;;;618610;230;26784;-62
2022/09/19 04:48:49;;;;;;;1.20;1.10;;;;;;;;;;618928;230;26769;-62
2022/09/19 04:51:18;;;;;;;1.80;1.10;;;;;;;;;;615851;230;26564;-62
2022/09/19 04:53:47;;;;;;;1.55;1.20;;;;;;;;;;616478;230;26559;-62
2022/09/19 04:56:17;;;;;;;1.40;1.02;;;;;;;;;;615609;230;26565;-61
2022/09/19 04:58:45;;;;;;;3.53;1.20;;;;;;;;;;616797;231;27125;-61
2022/09/19 05:01:14;;;;;;;2.33;1.10;;;;;;;;;;616751;230;26852;-61
2022/09/19 05:03:44;;;;;;;1.67;1.10;;;;;;;;;;615441;231;26607;-61
2022/09/19 05:06:12;;;;;;;2.10;1.20;;;;;;;;;;615533;231;26557;-61
2022/09/19 05:08:41;;;;;;;1.58;1.10;;;;;;;;;;615483;231;26587;-61
2022/09/19 05:11:10;;;;;;;1.90;1.20;;;;;;;;;;615224;231;26841;-61
2022/09/19 05:13:40;;;;;;;1.00;0.95;;;;;;;;;;617026;231;26778;-62
2022/09/19 05:16:09;;;;;;;1.48;1.10;;;;;;;;;;616989;231;26611;-62
2022/09/19 05:18:37;;;;;;;1.20;1.10;;;;;;;;;;615215;231;26622;-61
2022/09/19 05:21:06;;;;;;;0.80;0.80;;;;;;;;;;614499;231;26602;-62
2022/09/19 05:23:36;;;;;;;1.42;1.00;;;;;;;;;;617959;231;26806;-62
2022/09/19 05:26:04;;;;;;;1.33;1.23;;;;;;;;;;615817;230;26616;-61
2022/09/19 05:28:33;;;;;;;0.93;0.90;;;;;;;;;;615517;228;26784;-63
2022/09/19 05:31:05;;;;;;;1.80;1.20;;;;;;;;;;616758;231;26620;-63
2022/09/19 05:33:31;;;;;;;1.17;0.98;;;;;;;;;;615266;231;26590;-61
2022/09/19 05:36:00;;;;;;;1.00;1.00;;;;;;;;;;616181;231;26549;-61
2022/09/19 05:38:28;;;;;;;1.77;1.20;;;;;;;;;;615903;231;26563;-61
2022/09/19 05:40:57;;;;;;;0.98;0.98;;;;;;;;;;616049;231;26833;-62
2022/09/19 05:43:26;;;;;;;1.85;1.10;;;;;;;;;;616572;230;26622;-62
2022/09/19 05:45:55;;;;;;;1.00;1.00;;;;;;;;;;619180;230;26801;-62
2022/09/19 05:48:24;;;;;;;1.48;1.33;;;;;;;;;;616131;230;26582;-62
2022/09/19 05:50:52;;;;;;;0.90;0.90;;;;;;;;;;617721;230;26620;-62
2022/09/19 05:55:56;;;;;;;2.25;1.23;;;;;;;;;;616921;230;26802;-61
2022/09/19 05:58:25;;;;;;;1.92;1.45;;;;;;;;;;616997;226;26603;-61
2022/09/19 06:00:53;;;;;;;1.70;1.15;;;;;;;;;;615121;231;26563;-61
2022/09/19 06:03:22;;;;;;;1.83;1.15;;;;;;;;;;615945;230;26581;-61
2022/09/19 06:05:52;;;;;;;1.40;1.30;;;;;;;;;;617092;230;26572;-61
2022/09/19 06:08:21;;;;;;;1.90;1.17;;;;;;;;;;614783;231;26772;-61
2022/09/19 06:10:49;;;;;;;2.00;1.20;;;;;;;;;;615499;231;26565;-61
2022/09/19 06:13:18;;;;;;;1.40;1.20;;;;;;;;;;616295;231;26925;-61
2022/09/19 06:15:47;;;;;;;1.23;1.00;;;;;;;;;;615694;230;26539;-61
2022/09/19 06:18:15;;;;;;;1.25;1.23;;;;;;;;;;612851;231;26578;-62
2022/09/19 06:20:45;;;;;;;1.30;1.05;;;;;;;;;;619408;231;26576;-61
2022/09/19 06:23:13;;;;;;;1.60;1.30;;;;;;;;;;617948;231;26598;-61
2022/09/19 06:25:42;;;;;;;1.65;1.30;;;;;;;;;;621110;231;26620;-61
2022/09/19 06:28:11;;;;;;;1.33;1.10;;;;;;;;;;621035;231;26586;-61
2022/09/19 06:30:40;;;;;;;2.08;1.05;;;;;;;;;;621075;231;26615;-61
2022/09/19 06:33:09;;;;;;;1.85;1.30;;;;;;;;;;618971;231;26588;-61
2022/09/19 06:35:38;;;;;;;1.60;1.17;;;;;;;;;;615148;234;26637;-61
2022/09/19 06:38:07;;;;;;;1.23;0.98;;;;;;;;;;615674;234;26565;-61
2022/09/19 06:40:38;;;;;;;1.08;0.90;;;;;;;;;;615549;234;26560;-61
2022/09/19 06:43:06;;;;;;;5.87;1.08;;;;;;;;;;616948;231;26829;-61
2022/09/19 06:45:36;;;;;;;1.05;1.02;;;;;;;;;;620735;231;26622;-61
2022/09/19 06:48:04;;;;;;;1.45;1.05;;;;;;;;;;621042;231;26880;-61
2022/09/19 06:50:33;;;;;;;2.85;1.10;;;;;;;;;;621207;229;26628;-61
2022/09/19 06:53:02;;;;;;;1.45;1.10;;;;;;;;;;622761;230;26643;-61
2022/09/19 06:55:30;;;;;;;2.03;0.77;;;;;;;;;;620816;231;27213;-61
2022/09/19 06:57:59;;;;;;;1.00;1.00;;;;;;;;;;613578;232;26567;-61
2022/09/19 07:00:28;;;;;;;1.62;1.20;;;;;;;;;;617946;230;26815;-61
2022/09/19 07:02:59;;;;;;;1.00;0.90;;;;;;;;;;618430;229;26621;-60
2022/09/19 07:05:27;;;;;;;2.17;1.23;;;;;;;;;;615661;230;26611;-61
2022/09/19 07:07:55;;;;;;;1.52;1.00;;;;;;;;;;615100;232;26583;-61
2022/09/19 07:10:25;;;;;;;2.10;1.00;;;;;;;;;;614416;232;26564;-61
2022/09/19 07:12:55;;;;;;;1.23;0.98;;;;;;;;;;613284;233;26592;-61
2022/09/19 07:15:22;;;;;;;2.00;1.00;;;;;;;;;;614690;231;26820;-61
2022/09/19 07:17:54;;;;;;;1.87;1.10;;;;;;;;;;614064;233;26571;-61
2022/09/19 07:20:22;;;;;;;8.48;1.25;;;;;;;;;;615251;233;26636;-61
2022/09/19 07:22:58;;;;;;;1.98;1.27;;;;;;;;;;614470;230;26833;-61
2022/09/19 07:25:26;;;;;;;1.05;1.00;;;;;;;;;;614412;231;26620;-62
2022/09/19 07:27:58;;;;;;;2.33;1.17;;;;;;;;;;614965;230;26813;-62
2022/09/19 07:30:27;;;;;;;4.93;1.25;;;;;;;;;;619167;231;26585;-62
2022/09/19 07:32:57;;;;;;;11.23;1.40;;;;;;;;;;621046;231;26641;-62
2022/09/19 07:35:25;;;;;;;2.62;1.33;;;;;;;;;;617386;231;27569;-62
2022/09/19 07:37:53;;;;;;;3.03;1.50;;;;;;;;;;614206;231;26556;-62
2022/09/19 07:40:22;;;;;;;3.85;1.50;;;;;;;;;;614547;231;26838;-62
2022/09/19 07:42:51;;;;;;;2.20;1.23;;;;;;;;;;612620;234;26586;-62
2022/09/19 07:45:20;;;;;;;3.10;1.48;;;;;;;;;;613506;234;26560;-62
2022/09/19 07:47:49;;;;;;;3.22;1.37;;;;;;;;;;613883;234;26571;-62
2022/09/19 07:50:18;;;;;;;1.87;1.20;;;;;;;;;;618038;231;26567;-62
2022/09/19 07:52:47;;;;;;;3.20;1.30;;;;;;;;;;616345;231;26602;-62
2022/09/19 07:55:15;;;;;;;1.00;0.90;;;;;;;;;;615175;228;26596;-62
2022/09/19 07:57:50;;;;;;;2.55;1.10;;;;;;;;;;617307;231;26834;-61
2022/09/19 08:00:18;;;;;;;11.35;1.50;;;;;;;;;;617091;231;26554;-61
2022/09/19 08:02:53;;;;;;;17.50;2.00;;;;;;;;;;614786;231;26647;-61
2022/09/19 08:05:21;;;;;;;6.78;1.80;;;;;;;;;;614978;231;26540;-62
2022/09/19 08:07:50;;;;;;;3.85;1.10;;;;;;;;;;621886;230;26614;-62
2022/09/19 08:10:19;;;;;;;2.15;1.27;;;;;;;;;;615274;231;26571;-62
2022/09/19 08:12:48;;;;;;;1.67;1.12;;;;;;;;;;614369;231;26602;-61
2022/09/19 08:15:16;;;;;;;1.85;1.00;;;;;;;;;;615145;232;26550;-61
2022/09/19 08:17:51;;;;;;;7.53;1.50;;;;;;;;;;617972;230;26605;-63
2022/09/19 08:20:20;;;;;;;5.62;1.20;;;;;;;;;;623175;230;27008;-63
2022/09/19 08:22:49;;;;;;;2.53;1.00;;;;;;;;;;622224;230;26694;-62
2022/09/19 08:25:18;;;;;;;4.82;1.25;;;;;;;;;;614037;233;26589;-62
2022/09/19 08:27:46;;;;;;;2.87;1.00;;;;;;;;;;614800;231;26561;-62
2022/09/19 08:30:16;;;;;;;0.95;0.95;;;;;;;;;;615127;231;26616;-62
2022/09/19 08:32:44;;;;;;;1.58;1.15;;;;;;;;;;617336;230;26813;-62
2022/09/19 08:35:15;;;;;;;1.30;0.90;;;;;;;;;;615473;231;26564;-62
2022/09/19 08:37:42;;;;;;;1.12;0.90;;;;;;;;;;618684;231;26989;-62
2022/09/19 08:40:15;;;;;;;1.62;1.10;;;;;;;;;;622911;231;26560;-62
2022/09/19 08:42:59;;;;;;;2.83;1.10;;;;;;;;;;621561;231;26668;-61
2022/09/19 08:45:44;;;;;;;1.08;0.88;;;;;;;;;;609250;235;26962;-61
2022/09/19 08:48:12;;;;;;;1.87;1.00;;;;;;;;;;610120;231;27335;-62
2022/09/19 08:50:41;;;;;;;1.55;1.15;;;;;;;;;;613127;231;26601;-62
2022/09/19 08:53:10;;;;;;;1.42;0.90;;;;;;;;;;617932;231;26657;-62
2022/09/19 08:55:41;;;;;;;2.05;1.00;;;;;;;;;;613114;231;26849;-62
2022/09/19 08:58:08;;;;;;;1.05;0.80;;;;;;;;;;614548;234;26589;-62
2022/09/19 09:00:37;;;;;;;1.10;1.00;;;;;;;;;;618442;231;26849;-62
2022/09/19 09:03:06;;;;;;;0.80;0.80;;;;;;;;;;614169;234;26584;-62
2022/09/19 09:05:36;;;;;;;1.67;1.00;;;;;;;;;;613879;234;26558;-62
2022/09/19 09:08:03;;;;;;;1.33;0.90;;;;;;;;;;615631;231;26867;-63
2022/09/19 09:10:33;;;;;;;2.12;1.05;;;;;;;;;;616792;231;26608;-62
2022/09/19 09:13:04;;;;;;;1.00;1.00;;;;;;;;;;616148;231;26586;-62
2022/09/19 09:15:36;;;;;;;2.17;1.02;;;;;;;;;;615330;231;26625;-62
2022/09/19 09:18:23;;;;;;;2.05;0.98;;;;;;;;;;615802;231;26629;-62
2022/09/19 09:20:53;;;;;;;0.88;0.88;;;;;;;;;;613836;231;26937;-63
2022/09/19 09:23:22;;;;;;;2.67;1.10;;;;;;;;;;615014;231;26591;-63
2022/09/19 09:25:51;;;;;;;1.35;0.93;;;;;;;;;;620493;228;26585;-62
2022/09/19 09:28:25;;;;;;;1.87;0.80;;;;;;;;;;617830;231;26876;-63
2022/09/19 09:30:49;;;;;;;0.70;0.70;;;;;;;;;;616942;230;26615;-64
2022/09/19 09:33:22;;;;;;;2.35;1.10;;;;;;;;;;618312;230;26855;-64
2022/09/19 09:35:54;;;;;;;1.05;0.80;;;;;;;;;;614364;233;26557;-61
2022/09/19 09:38:26;;;;;;;5.05;1.40;;;;;;;;;;618919;231;26811;-61
2022/09/19 09:43:28;;;;;;;2.42;1.23;;;;;;;;;;614836;231;26593;-63
2022/09/19 09:45:59;;;;;;;7.78;1.37;;;;;;;;;;619430;230;26791;-63
2022/09/19 09:48:30;;;;;;;9.73;1.30;;;;;;;;;;623804;230;26539;-64
2022/09/19 09:51:11;;;;;;;3.08;1.40;;;;;;;;;;613189;234;26560;-64
2022/09/19 09:53:48;;;;;;;3.40;1.08;;;;;;;;;;614094;231;26579;-64
2022/09/19 09:56:15;;;;;;;2.20;1.10;;;;;;;;;;616869;231;26539;-63
2022/09/19 09:58:50;;;;;;;34.88;6.03;;;;;;;;;;613609;231;26601;-65
2022/09/19 10:04:01;;;;;;;112.50;20.92;;;;;;;;;;616004;231;26596;-63
2022/09/19 10:06:28;;;;;;;120.82;24.87;;;;;;;;;;612592;234;26568;-64
2022/09/19 10:08:59;;;;;;;98.15;19.83;;;;;;;;;;614342;231;26576;-66
2022/09/19 10:11:31;;;;;;;89.85;18.42;;;;;;;;;;613961;234;26781;-66
2022/09/19 10:14:01;;;;;;;90.15;17.35;;;;;;;;;;614372;234;26588;-64
2022/09/19 10:16:32;;;;;;;78.00;16.35;;;;;;;;;;615401;231;26522;-65
2022/09/19 10:19:07;;;;;;;89.90;17.77;;;;;;;;;;613837;231;26585;-66
2022/09/19 10:21:29;;;;;;;91.28;17.15;;;;;;;;;;612714;234;26607;-66
2022/09/19 10:23:59;;;;;;;63.70;15.48;;;;;;;;;;615386;231;26625;-66
2022/09/19 10:26:27;;;;;;;70.45;14.90;;;;;;;;;;621154;229;26626;-66
2022/09/19 10:29:00;;;;;;;58.17;13.82;;;;;;;;;;619237;230;26627;-66
2022/09/19 10:31:31;;;;;;;42.53;9.85;;;;;;;;;;616681;231;26805;-64
2022/09/19 10:34:03;;;;;;;47.47;6.97;;;;;;;;;;616541;231;26566;-66
2022/09/19 10:36:32;;;;;;;155.35;22.80;;;;;;;;;;615365;233;27296;-66
2022/09/19 10:38:59;;;;;;;1999.90;234.00;;;;;;;;;;613355;233;26613;-65
2022/09/19 10:41:27;;;;;;;1999.90;507.67;;;;;;;;;;614017;233;26805;-66
2022/09/19 10:44:11;;;;;;;1999.90;497.17;;;;;;;;;;618201;231;26851;-64
2022/09/19 10:46:41;;;;;;;78.07;23.10;;;;;;;;;;622463;230;26791;-67
2022/09/19 10:49:18;;;;;;;59.28;19.90;;;;;;;;;;618703;231;26581;-63
2022/09/19 10:51:45;;;;;;;54.50;18.35;;;;;;;;;;614243;233;26563;-66
2022/09/19 10:54:19;;;;;;;44.30;15.45;;;;;;;;;;613782;230;26636;-67
2022/09/19 10:56:48;;;;;;;38.72;13.80;;;;;;;;;;619453;230;26571;-67
2022/09/19 10:59:18;;;;;;;39.05;11.77;;;;;;;;;;615525;233;26631;-67
2022/09/19 11:01:53;;;;;;;34.67;11.20;;;;;;;;;;613453;230;26550;-67
2022/09/19 11:04:22;;;;;;;30.85;9.65;;;;;;;;;;614270;230;26791;-68
2022/09/19 11:06:55;;;;;;;27.77;9.48;;;;;;;;;;615775;231;26569;-68
2022/09/19 11:09:25;;;;;;;31.25;9.32;;;;;;;;;;618155;231;26585;-67
2022/09/19 11:11:54;;;;;;;25.92;9.93;;;;;;;;;;615492;234;26831;-67
2022/09/19 11:14:26;;;;;;;18.55;7.35;;;;;;;;;;614797;234;26553;-67
2022/09/19 11:16:51;;;;;;;27.90;9.02;;;;;;;;;;614888;234;26568;-67
2022/09/19 11:19:26;;;;;;;21.12;7.22;;;;;;;;;;617586;231;26833;-67
2022/09/19 11:22:08;;;;;;;14.43;6.55;;;;;;;;;;616126;231;27287;-67
2022/09/19 11:24:42;;;;;;;20.08;7.22;;;;;;;;;;612446;231;26636;-67
2022/09/19 11:27:11;;;;;;;14.00;5.15;;;;;;;;;;613620;234;26572;-66
2022/09/19 11:29:45;;;;;;;17.45;6.15;;;;;;;;;;613626;234;26573;-63
2022/09/19 11:32:24;;;;;;;15.38;5.43;;;;;;;;;;619134;231;26657;-66
2022/09/19 11:34:54;;;;;;;15.77;5.12;;;;;;;;;;619554;231;26957;-63
2022/09/19 11:37:29;;;;;;;15.10;5.60;;;;;;;;;;616661;229;26530;-66
2022/09/19 11:40:00;;;;;;;17.77;5.10;;;;;;;;;;615538;230;26568;-66
2022/09/19 11:42:30;;;;;;;11.07;4.37;;;;;;;;;;615067;231;26787;-65
2022/09/19 11:44:59;;;;;;;13.43;4.20;;;;;;;;;;612945;231;26835;-65
2022/09/19 11:47:30;;;;;;;14.85;4.25;;;;;;;;;;612542;233;26544;-65
2022/09/19 11:50:01;;;;;;;9.30;3.45;;;;;;;;;;613231;230;26620;-65
2022/09/19 11:52:45;;;;;;;8.88;3.58;;;;;;;;;;614803;230;26598;-65
2022/09/19 11:55:14;;;;;;;8.82;2.95;;;;;;;;;;601842;231;26678;-66
2022/09/19 11:57:47;;;;;;;8.27;3.33;;;;;;;;;;615911;230;26608;-66
2022/09/19 12:00:16;;;;;;;6.82;2.83;;;;;;;;;;618163;231;26610;-66
2022/09/19 12:03:05;;;;;;;5.32;2.03;;;;;;;;;;613217;231;26544;-65
2022/09/19 12:05:53;;;;;;;4.87;2.42;;;;;;;;;;615509;230;26591;-65
2022/09/19 12:08:22;;;;;;;7.80;2.10;;;;;;;;;;612266;231;26816;-66
2022/09/19 12:10:51;;;;;;;6.37;2.10;;;;;;;;;;618387;228;26548;-66
2022/09/19 12:13:21;;;;;;;7.18;1.90;;;;;;;;;;616686;230;26564;-64
2022/09/19 12:15:51;;;;;;;2.90;1.65;;;;;;;;;;616072;231;26540;-66
2022/09/19 12:18:21;;;;;;;4.25;1.80;;;;;;;;;;617000;231;26571;-66
2022/09/19 12:20:50;;;;;;;3.08;1.48;;;;;;;;;;617304;231;26844;-68
2022/09/19 12:26:09;;;;;;;4.85;1.55;;;;;;;;;;616689;231;26519;-68
2022/09/19 12:28:37;;;;;;;4.28;1.42;;;;;;;;;;616322;231;26606;-68
2022/09/19 12:31:06;;;;;;;2.42;1.40;;;;;;;;;;616393;231;26573;-68
2022/09/19 12:33:47;;;;;;;2.20;1.20;;;;;;;;;;615646;231;26561;-67
2022/09/19 12:36:19;;;;;;;1.42;1.25;;;;;;;;;;617576;228;26795;-68
2022/09/19 12:38:47;;;;;;;6.18;1.58;;;;;;;;;;615841;231;26560;-68
2022/09/19 12:41:16;;;;;;;2.60;1.30;;;;;;;;;;616058;230;26573;-68
2022/09/19 12:43:45;;;;;;;2.75;1.40;;;;;;;;;;616881;231;26879;-69
2022/09/19 12:46:20;;;;;;;5.87;1.77;;;;;;;;;;616476;231;26569;-68
2022/09/19 12:48:49;;;;;;;3.92;1.85;;;;;;;;;;616292;231;26579;-68
2022/09/19 12:51:18;;;;;;;7.80;2.25;;;;;;;;;;618941;230;26845;-69
2022/09/19 12:53:48;;;;;;;6.65;2.45;;;;;;;;;;616547;230;26589;-69
2022/09/19 12:56:19;;;;;;;4.07;2.65;;;;;;;;;;616915;226;26788;-68
2022/09/19 12:59:00;;;;;;;9.25;2.87;;;;;;;;;;616381;231;26531;-70
2022/09/19 13:01:24;;;;;;;5.62;2.47;;;;;;;;;;616825;230;26618;-70
2022/09/19 13:03:59;;;;;;;6.20;2.15;;;;;;;;;;618877;227;27186;-70
2022/09/19 13:06:26;;;;;;;4.72;2.20;;;;;;;;;;615691;230;26603;-68
2022/09/19 13:09:03;;;;;;;5.25;2.03;;;;;;;;;;615519;230;26842;-67
2022/09/19 13:11:34;;;;;;;7.37;2.28;;;;;;;;;;616344;230;26813;-67
2022/09/19 13:14:06;;;;;;;5.70;2.25;;;;;;;;;;615699;230;26855;-67
2022/09/19 13:16:33;;;;;;;8.35;2.50;;;;;;;;;;615337;231;26550;-67
2022/09/19 13:24:15;;;;;;;3.35;1.87;;;;;;;;;;615294;231;26553;-67
2022/09/19 13:26:43;;;;;;;3.75;2.30;;;;;;;;;;617113;227;26537;-67
2022/09/19 13:29:33;;;;;;;2.62;1.80;;;;;;;;;;616116;231;26571;-67
2022/09/19 13:32:02;;;;;;;4.57;1.95;;;;;;;;;;613815;231;26807;-67
2022/09/19 13:34:42;;;;;;;5.82;1.98;;;;;;;;;;615993;231;26627;-67
2022/09/19 13:37:17;;;;;;;6.90;2.35;;;;;;;;;;615244;231;26567;-67
2022/09/19 13:39:49;;;;;;;4.75;2.25;;;;;;;;;;614514;230;26564;-67
2022/09/19 13:42:14;;;;;;;5.10;2.30;;;;;;;;;;614235;231;26593;-67
2022/09/19 13:44:44;;;;;;;3.62;1.90;;;;;;;;;;617120;231;26897;-67
2022/09/19 13:47:13;;;;;;;3.78;1.77;;;;;;;;;;617198;231;26567;-67
2022/09/19 13:49:41;;;;;;;6.72;2.22;;;;;;;;;;613818;231;26856;-67
2022/09/19 13:52:10;;;;;;;5.47;2.12;;;;;;;;;;617156;231;26596;-67
2022/09/19 13:54:44;;;;;;;5.15;1.95;;;;;;;;;;615393;231;26813;-67
2022/09/19 13:57:14;;;;;;;5.72;2.30;;;;;;;;;;617458;231;26627;-67
2022/09/19 13:59:52;;;;;;;3.80;1.92;;;;;;;;;;613926;231;26803;-66
2022/09/19 14:02:20;;;;;;;3.95;1.95;;;;;;;;;;617332;230;26859;-67
2022/09/19 14:04:57;;;;;;;4.43;2.40;;;;;;;;;;617654;225;26572;-67
2022/09/19 14:07:29;;;;;;;6.78;2.37;;;;;;;;;;618137;230;26591;-67
2022/09/19 14:10:00;;;;;;;7.05;2.45;;;;;;;;;;617401;230;26585;-67
2022/09/19 14:12:46;;;;;;;4.85;2.28;;;;;;;;;;617295;230;26616;-67
2022/09/19 14:15:20;;;;;;;4.72;2.28;;;;;;;;;;607766;231;26877;-67
2022/09/19 14:17:55;;;;;;;3.50;1.77;;;;;;;;;;619507;230;26526;-66
2022/09/19 14:20:39;;;;;;;2.92;1.95;;;;;;;;;;616743;230;26529;-66
2022/09/19 14:23:08;;;;;;;4.55;2.00;;;;;;;;;;612366;233;26613;-66
2022/09/19 14:25:37;;;;;;;2.60;1.75;;;;;;;;;;615441;231;26794;-67
2022/09/19 14:28:11;;;;;;;4.35;1.77;;;;;;;;;;617304;230;26569;-67
2022/09/19 14:30:42;;;;;;;2.45;1.92;;;;;;;;;;615071;228;26563;-67
2022/09/19 14:33:17;;;;;;;2.30;1.80;;;;;;;;;;615977;231;26601;-66
2022/09/19 14:35:46;;;;;;;2.55;2.00;;;;;;;;;;615973;231;27293;-66
2022/09/19 14:38:19;;;;;;;2.17;1.60;;;;;;;;;;614562;230;26536;-64
2022/09/19 14:41:05;;;;;;;7.57;2.37;;;;;;;;;;616443;231;26851;-65
2022/09/19 14:43:49;;;;;;;4.62;2.10;;;;;;;;;;616447;231;26561;-64
2022/09/19 14:46:32;;;;;;;4.15;1.98;;;;;;;;;;610907;231;26850;-64
2022/09/19 14:49:04;;;;;;;4.20;2.12;;;;;;;;;;618708;230;26596;-64
2022/09/19 14:51:34;;;;;;;4.60;2.03;;;;;;;;;;616739;231;26805;-64
2022/09/19 14:54:04;;;;;;;6.93;1.67;;;;;;;;;;614197;231;26580;-64
2022/09/19 14:56:33;;;;;;;5.85;2.00;;;;;;;;;;614963;231;26572;-65
2022/09/19 14:59:02;;;;;;;1.80;1.50;;;;;;;;;;615389;231;26825;-64
2022/09/19 15:01:32;;;;;;;7.70;1.80;;;;;;;;;;614919;231;26564;-64
2022/09/19 15:04:02;;;;;;;3.72;1.70;;;;;;;;;;616700;231;26594;-64
2022/09/19 15:06:31;;;;;;;1.95;1.70;;;;;;;;;;617234;231;26634;-65
2022/09/19 15:08:59;;;;;;;2.80;1.70;;;;;;;;;;616895;230;26822;-64
2022/09/19 15:11:29;;;;;;;3.70;1.92;;;;;;;;;;613867;231;26822;-64
2022/09/19 15:13:59;;;;;;;3.03;1.65;;;;;;;;;;616545;231;26583;-65
2022/09/19 15:16:27;;;;;;;3.80;1.50;;;;;;;;;;618603;231;26652;-65
2022/09/19 15:18:56;;;;;;;2.58;1.40;;;;;;;;;;617461;230;26543;-65
2022/09/19 15:21:26;;;;;;;2.12;1.60;;;;;;;;;;617623;229;26606;-65